createdAt,value
2024-04-05T00:02:14.125Z,57.73
2024-04-05T00:04:42.979Z,58.16
2024-04-05T00:07:12.133Z,58.38
2024-04-05T00:09:45.410Z,58.75
2024-04-05T00:12:14.611Z,58.62
2024-04-05T00:14:42.886Z,59.16
2024-04-05T00:17:12.118Z,59.17
2024-04-05T00:19:43.309Z,59.17
2024-04-05T00:22:11.797Z,59.08
2024-04-05T00:24:40.364Z,58.56
2024-04-05T00:27:09.279Z,58.52
2024-04-05T00:29:37.809Z,59.07
2024-04-05T00:32:07.024Z,59.51
2024-04-05T00:34:36.154Z,60.28
2024-04-05T00:37:04.827Z,60.10
2024-04-05T00:39:33.327Z,59.98
2024-04-05T00:42:02.478Z,60.32
2024-04-05T00:44:31.531Z,60.37
2024-04-05T00:46:59.850Z,59.97
2024-04-05T00:49:28.804Z,59.98
2024-04-05T00:51:57.828Z,60.30
2024-04-05T00:54:26.498Z,60.26
2024-04-05T00:56:55.537Z,59.80
2024-04-05T00:59:25.522Z,59.89
2024-04-05T01:01:54.107Z,60.24
2024-04-05T01:04:22.400Z,60.37
2024-04-05T01:06:52.276Z,60.72
2024-04-05T01:09:22.079Z,61.04
2024-04-05T01:11:57.603Z,61.48
2024-04-05T01:14:27.028Z,62.09
2024-04-05T01:16:56.209Z,61.98
2024-04-05T01:19:24.958Z,61.68
2024-04-05T01:21:53.317Z,61.65
2024-04-05T01:24:22.054Z,61.34
2024-04-05T01:26:51.009Z,61.45
2024-04-05T01:29:19.552Z,62.51
2024-04-05T01:31:47.954Z,62.86
2024-04-05T01:34:17.612Z,62.28
2024-04-05T01:36:46.712Z,62.53
2024-04-05T01:39:15.422Z,62.49
2024-04-05T01:41:43.778Z,62.55
2024-04-05T01:44:13.177Z,63.16
2024-04-05T01:46:42.861Z,63.08
2024-04-05T01:49:12.048Z,63.07
2024-04-05T01:51:41.098Z,63.45
2024-04-05T01:54:09.640Z,62.93
2024-04-05T01:56:38.376Z,63.37
2024-04-05T01:59:06.886Z,63.42
2024-04-05T02:01:35.387Z,63.11
2024-04-05T02:04:04.941Z,63.51
2024-04-05T02:06:33.554Z,64.04
2024-04-05T02:09:02.795Z,63.90
2024-04-05T02:11:31.452Z,62.80
2024-04-05T02:14:00.442Z,62.85
2024-04-05T02:16:29.410Z,63.84
2024-04-05T02:18:57.772Z,64.03
2024-04-05T02:21:26.112Z,64.53
2024-04-05T02:23:54.532Z,63.64
2024-04-05T02:26:23.746Z,64.18
2024-04-05T02:28:52.205Z,63.81
2024-04-05T02:31:20.418Z,64.34
2024-04-05T02:33:49.054Z,64.17
2024-04-05T02:36:18.272Z,64.21
2024-04-05T02:38:47.540Z,64.20
2024-04-05T02:41:17.065Z,64.26
2024-04-05T02:43:46.294Z,64.39
2024-04-05T02:46:14.739Z,64.48
2024-04-05T02:48:43.183Z,63.87
2024-04-05T02:51:11.906Z,64.22
2024-04-05T02:53:41.119Z,64.05
2024-04-05T02:56:12.283Z,64.98
2024-04-05T02:58:40.948Z,65.56
2024-04-05T03:01:09.734Z,65.21
2024-04-05T03:03:38.118Z,64.89
2024-04-05T03:06:06.457Z,65.35
2024-04-05T03:08:35.367Z,65.50
2024-04-05T03:11:04.152Z,66.09
2024-04-05T03:13:33.181Z,66.35
2024-04-05T03:16:02.629Z,66.64
2024-04-05T03:18:33.063Z,66.24
2024-04-05T03:21:01.542Z,66.25
2024-04-05T03:23:30.558Z,66.35
2024-04-05T03:25:59.306Z,66.85
2024-04-05T03:28:28.291Z,67.44
2024-04-05T03:30:57.516Z,67.54
2024-04-05T03:33:26.608Z,67.42
2024-04-05T03:35:55.008Z,66.95
2024-04-05T03:38:24.460Z,67.26
2024-04-05T03:40:53.623Z,66.79
2024-04-05T03:43:22.864Z,67.14
2024-04-05T03:45:51.276Z,66.51
2024-04-05T03:48:20.172Z,66.67
2024-04-05T03:50:48.721Z,67.06
2024-04-05T03:53:17.279Z,68.15
2024-04-05T03:55:45.522Z,67.76
2024-04-05T03:58:14.970Z,66.83
2024-04-05T04:00:50.572Z,66.43
2024-04-05T04:03:19.817Z,65.72
2024-04-05T04:05:48.964Z,66.16
2024-04-05T04:08:17.656Z,65.95
2024-04-05T04:10:46.244Z,66.23
2024-04-05T04:13:15.702Z,66.14
2024-04-05T04:15:45.033Z,66.02
2024-04-05T04:18:13.841Z,66.44
2024-04-05T04:20:42.976Z,66.47
2024-04-05T04:23:11.822Z,65.78
2024-04-05T04:25:41.255Z,65.68
2024-04-05T04:28:11.391Z,66.51
2024-04-05T04:30:40.490Z,66.93
2024-04-05T04:33:12.089Z,66.43
2024-04-05T04:35:44.574Z,66.40
2024-04-05T04:38:13.180Z,66.86
2024-04-05T04:40:42.978Z,67.08
2024-04-05T04:43:11.452Z,67.06
2024-04-05T04:45:39.790Z,67.11
2024-04-05T04:48:08.603Z,66.67
2024-04-05T04:50:37.337Z,66.14
2024-04-05T04:53:05.947Z,65.81
2024-04-05T04:55:36.751Z,65.60
2024-04-05T04:58:06.607Z,65.37
2024-04-05T05:00:35.456Z,64.84
2024-04-05T05:03:03.866Z,64.71
2024-04-05T05:05:32.619Z,64.29
2024-04-05T05:08:01.146Z,64.19
2024-04-05T05:10:30.147Z,63.76
2024-04-05T05:13:00.333Z,64.02
2024-04-05T05:15:28.490Z,63.58
2024-04-05T05:17:56.730Z,63.16
2024-04-05T05:20:27.855Z,62.53
2024-04-05T05:22:57.341Z,62.29
2024-04-05T05:25:25.683Z,62.27
2024-04-05T05:27:54.200Z,61.45
2024-04-05T05:30:23.547Z,60.93
2024-04-05T05:32:54.709Z,59.88
2024-04-05T05:35:23.914Z,59.42
2024-04-05T05:37:51.969Z,58.85
2024-04-05T05:40:19.921Z,58.15
2024-04-05T05:42:48.987Z,57.80
2024-04-05T05:45:17.382Z,57.29
2024-04-05T05:47:46.245Z,57.12
2024-04-05T05:50:15.174Z,56.52
2024-04-05T05:52:43.756Z,56.53
2024-04-05T05:55:12.070Z,55.82
2024-04-05T05:57:40.393Z,55.34
2024-04-05T06:00:11.560Z,55.12
2024-04-05T06:02:40.764Z,55.06
2024-04-05T06:05:16.031Z,54.53
2024-04-05T06:07:45.127Z,54.36
2024-04-05T06:10:20.944Z,54.24
2024-04-05T06:12:53.202Z,53.60
2024-04-05T06:15:25.838Z,52.97
2024-04-05T06:17:56.290Z,52.94
2024-04-05T06:20:27.089Z,52.31
2024-04-05T06:22:57.690Z,52.23
2024-04-05T06:25:25.962Z,51.48
2024-04-05T06:27:56.497Z,51.63
2024-04-05T06:30:24.765Z,51.33
2024-04-05T06:32:53.716Z,51.05
2024-04-05T06:35:21.960Z,51.01
2024-04-05T06:37:50.786Z,50.50
2024-04-05T06:40:18.963Z,50.32
2024-04-05T06:42:47.448Z,50.01
2024-04-05T06:45:15.830Z,49.79
2024-04-05T06:47:44.152Z,49.85
2024-04-05T06:50:12.439Z,49.54
2024-04-05T06:52:40.455Z,49.69
2024-04-05T06:55:09.427Z,49.61
2024-04-05T06:57:38.732Z,49.14
2024-04-05T07:00:07.940Z,48.94
2024-04-05T07:02:36.120Z,48.89
2024-04-05T07:05:04.594Z,48.19
2024-04-05T07:07:32.775Z,48.22
2024-04-05T07:10:00.913Z,47.88
2024-04-05T07:12:29.433Z,47.88
2024-04-05T07:14:58.691Z,47.32
2024-04-05T07:17:27.456Z,47.26
2024-04-05T07:19:56.309Z,47.12
2024-04-05T07:22:26.208Z,47.17
2024-04-05T07:24:55.751Z,47.07
2024-04-05T07:27:25.628Z,46.95
2024-04-05T07:29:55.344Z,46.85
2024-04-05T07:32:26.235Z,46.15
2024-04-05T07:34:55.465Z,45.26
2024-04-05T07:37:23.772Z,44.84
2024-04-05T07:39:52.187Z,43.65
2024-04-05T07:42:20.812Z,43.06
2024-04-05T07:44:48.901Z,43.27
2024-04-05T07:47:17.316Z,42.80
2024-04-05T07:49:45.587Z,41.72
2024-04-05T07:52:14.659Z,40.95
2024-04-05T07:54:46.580Z,39.85
2024-04-05T07:57:15.093Z,40.42
2024-04-05T07:59:48.472Z,39.87
2024-04-05T08:02:17.831Z,39.76
2024-04-05T08:04:46.282Z,39.03
2024-04-05T08:07:14.625Z,39.35
2024-04-05T08:09:44.839Z,39.53
2024-04-05T08:12:13.679Z,39.32
2024-04-05T08:14:43.653Z,38.79
2024-04-05T08:17:13.915Z,39.06
2024-04-05T08:19:42.841Z,38.77
2024-04-05T08:22:13.972Z,38.10
2024-04-05T08:25:08.721Z,37.68
2024-04-05T08:27:38.045Z,38.03
2024-04-05T08:30:07.674Z,38.21
2024-04-05T08:32:44.619Z,37.44
2024-04-05T08:35:14.858Z,37.43
2024-04-05T08:37:44.818Z,37.50
2024-04-05T08:43:18.195Z,37.00
2024-04-05T08:45:56.918Z,36.74
2024-04-05T08:48:26.723Z,36.07
2024-04-05T08:50:55.608Z,36.68
2024-04-05T08:53:23.697Z,36.39
2024-04-05T08:55:51.726Z,36.88
2024-04-05T08:58:19.684Z,37.47
2024-04-05T09:00:48.567Z,37.34
2024-04-05T09:03:16.473Z,36.93
2024-04-05T09:05:46.202Z,35.86
2024-04-05T09:08:14.961Z,36.09
2024-04-05T09:10:50.349Z,36.20
2024-04-05T09:13:18.864Z,36.59
2024-04-05T09:15:53.406Z,36.46
2024-04-05T09:18:25.227Z,36.30
2024-04-05T09:20:53.377Z,36.79
2024-04-05T09:23:23.471Z,36.26
2024-04-05T09:26:02.618Z,36.45
2024-04-05T09:28:30.991Z,36.79
2024-04-05T09:31:01.112Z,36.76
2024-04-05T09:33:30.393Z,36.86
2024-04-05T09:35:59.390Z,37.19
2024-04-05T09:38:27.368Z,37.27
2024-04-05T09:40:55.372Z,37.02
2024-04-05T09:43:23.628Z,36.88
2024-04-05T09:45:52.851Z,36.92
2024-04-05T09:48:23.079Z,36.58
2024-04-05T09:50:52.891Z,36.02
2024-04-05T09:53:20.890Z,35.93
2024-04-05T09:55:50.572Z,35.71
2024-04-05T09:58:19.036Z,35.41
2024-04-05T10:00:49.426Z,34.84
2024-04-05T10:03:19.123Z,35.20
2024-04-05T10:05:50.725Z,35.31
2024-04-05T10:08:20.215Z,35.19
2024-04-05T10:10:50.795Z,35.24
2024-04-05T10:13:25.667Z,34.69
2024-04-05T10:15:54.492Z,35.07
2024-04-05T10:18:31.521Z,35.21
2024-04-05T10:21:04.664Z,34.98
2024-04-05T10:23:34.397Z,34.66
2024-04-05T10:26:12.431Z,34.55
2024-04-05T10:28:41.588Z,34.30
2024-04-05T10:31:12.652Z,34.10
2024-04-05T10:33:47.792Z,33.78
2024-04-05T10:36:16.119Z,33.69
2024-04-05T10:38:50.459Z,33.43
2024-04-05T10:41:19.872Z,33.40
2024-04-05T10:43:48.563Z,33.41
2024-04-05T10:46:19.112Z,33.01
2024-04-05T10:48:57.335Z,33.14
2024-04-05T10:51:26.322Z,33.11
2024-04-05T10:53:56.745Z,33.04
2024-04-05T10:56:25.579Z,33.12
2024-04-05T10:58:55.082Z,33.02
2024-04-05T11:01:27.342Z,33.03
2024-04-05T11:03:57.280Z,32.89
2024-04-05T11:06:26.939Z,32.43
2024-04-05T11:11:30.094Z,32.14
2024-04-05T11:14:07.403Z,31.86
2024-04-05T11:16:41.024Z,31.93
2024-04-05T11:19:09.869Z,31.72
2024-04-05T11:21:38.110Z,31.78
2024-04-05T11:26:50.313Z,31.18
2024-04-05T11:29:20.539Z,31.36
2024-04-05T11:31:49.216Z,30.97
2024-04-05T11:34:18.560Z,31.27
2024-04-05T11:36:54.545Z,31.05
2024-04-05T11:39:26.204Z,31.46
2024-04-05T11:41:56.073Z,31.38
2024-04-05T11:44:29.043Z,31.39
2024-04-05T11:46:57.329Z,31.44
2024-04-05T11:49:26.709Z,31.50
2024-04-05T11:51:55.433Z,31.31
2024-04-05T11:54:24.076Z,31.51
2024-04-05T11:56:52.639Z,31.60
2024-04-05T11:59:21.657Z,31.30
2024-04-05T12:01:50.423Z,31.09
2024-04-05T12:04:22.195Z,30.99
2024-04-05T12:06:52.513Z,30.80
2024-04-05T12:09:21.356Z,30.70
2024-04-05T12:11:50.158Z,29.99
2024-04-05T12:14:19.930Z,30.49
2024-04-05T12:16:52.638Z,30.54
2024-04-05T12:19:20.985Z,30.61
2024-04-05T12:21:49.686Z,30.66
2024-04-05T12:24:18.490Z,31.10
2024-04-05T12:26:47.723Z,30.71
2024-04-05T12:29:16.345Z,30.98
2024-04-05T12:31:44.271Z,30.90
2024-04-05T12:34:12.183Z,30.91
2024-04-05T12:36:40.755Z,31.26
2024-04-05T12:39:17.773Z,30.71
2024-04-05T12:41:45.687Z,30.75
2024-04-05T12:44:13.819Z,31.02
2024-04-05T12:46:43.289Z,30.81
2024-04-05T12:49:18.017Z,30.66
2024-04-05T12:52:15.086Z,30.43
2024-04-05T12:57:16.687Z,30.40
2024-04-05T12:59:44.633Z,30.50
2024-04-05T13:02:12.683Z,30.34
2024-04-05T13:04:40.594Z,30.30
2024-04-05T13:07:08.769Z,30.25
2024-04-05T13:09:36.741Z,30.03
2024-04-05T13:12:04.799Z,30.07
2024-04-05T13:14:32.583Z,30.09
2024-04-05T13:17:00.928Z,29.82
2024-04-05T13:19:28.959Z,29.99
2024-04-05T13:21:56.820Z,29.93
2024-04-05T13:24:24.772Z,30.13
2024-04-05T13:26:53.057Z,29.76
2024-04-05T13:29:21.711Z,29.60
2024-04-05T13:31:49.690Z,29.75
2024-04-05T13:34:17.720Z,29.77
2024-04-05T13:36:48.150Z,30.12
2024-04-05T13:39:16.156Z,30.36
2024-04-05T13:41:44.780Z,30.04
2024-04-05T13:44:12.681Z,30.35
2024-04-05T13:46:40.527Z,30.85
2024-04-05T13:49:10.407Z,29.97
2024-04-05T13:51:40.038Z,29.97
2024-04-05T13:54:10.881Z,30.33
2024-04-05T13:56:40.714Z,30.27
2024-04-05T13:59:17.875Z,30.17
2024-04-05T14:01:48.463Z,30.41
2024-04-05T14:04:18.104Z,30.54
2024-04-05T14:09:19.544Z,30.27
2024-04-05T14:11:52.703Z,29.87
2024-04-05T14:14:21.963Z,29.93
2024-04-05T14:16:50.953Z,30.22
2024-04-05T14:19:18.992Z,30.29
2024-04-05T14:21:48.763Z,30.17
2024-04-05T14:24:21.676Z,30.26
2024-04-05T14:26:50.614Z,30.15
2024-04-05T14:29:18.862Z,30.15
2024-04-05T14:31:46.893Z,30.25
2024-04-05T14:34:14.992Z,30.24
2024-04-05T14:36:43.803Z,30.45
2024-04-05T14:39:11.916Z,30.65
2024-04-05T14:41:39.954Z,30.87
2024-04-05T14:44:08.776Z,30.88
2024-04-05T14:46:36.852Z,30.65
2024-04-05T14:49:04.878Z,30.62
2024-04-05T14:51:33.972Z,30.73
2024-04-05T14:54:03.244Z,30.95
2024-04-05T14:56:31.303Z,30.94
2024-04-05T14:58:59.580Z,30.90
2024-04-05T15:01:27.906Z,31.04
2024-04-05T15:03:55.914Z,31.07
2024-04-05T15:06:23.996Z,31.20
2024-04-05T15:08:51.929Z,31.22
2024-04-05T15:11:20.120Z,31.46
2024-04-05T15:13:48.164Z,31.48
2024-04-05T15:16:17.198Z,31.58
2024-04-05T15:18:45.336Z,32.02
2024-04-05T15:21:13.245Z,31.87
2024-04-05T15:23:41.804Z,31.92
2024-04-05T15:26:09.895Z,32.24
2024-04-05T15:28:39.240Z,31.75
2024-04-05T15:31:07.226Z,31.72
2024-04-05T15:33:38.222Z,32.51
2024-04-05T15:36:06.566Z,33.19
2024-04-05T15:38:35.909Z,33.13
2024-04-05T15:41:08.293Z,33.21
2024-04-05T15:43:37.379Z,34.26
2024-04-05T15:46:06.067Z,35.98
2024-04-05T15:48:33.946Z,38.35
2024-04-05T15:51:06.069Z,39.97
2024-04-05T15:53:34.542Z,40.71
2024-04-05T15:56:04.080Z,42.02
2024-04-05T15:58:32.113Z,42.86
2024-04-05T16:01:04.325Z,45.40
2024-04-05T16:03:33.270Z,48.32
2024-04-05T16:06:01.287Z,51.04
2024-04-05T16:08:29.325Z,50.99
2024-04-05T16:11:01.358Z,51.11
2024-04-05T16:13:29.308Z,53.91
2024-04-05T16:16:00.519Z,53.65
2024-04-05T16:18:29.106Z,53.19
2024-04-05T16:21:13.567Z,53.72
2024-04-05T16:23:43.102Z,56.65
2024-04-05T16:26:11.851Z,57.76
2024-04-05T16:28:44.530Z,56.02
2024-04-05T16:31:15.661Z,59.13
2024-04-05T16:33:44.492Z,57.50
2024-04-05T16:36:12.723Z,58.71
2024-04-05T16:38:41.025Z,58.26
2024-04-05T16:41:10.616Z,57.70
2024-04-05T16:43:39.012Z,56.00
2024-04-05T16:46:11.230Z,56.45
2024-04-05T16:48:39.860Z,57.12
2024-04-05T16:51:08.454Z,56.07
2024-04-05T16:53:39.603Z,57.21
2024-04-05T16:56:08.335Z,58.23
2024-04-05T16:58:36.434Z,57.54
2024-04-05T17:01:06.096Z,56.63
2024-04-05T17:03:34.717Z,55.76
2024-04-05T17:06:23.253Z,55.00
2024-04-05T17:08:51.796Z,55.10
2024-04-05T17:11:19.807Z,55.61
2024-04-05T17:13:56.853Z,56.42
2024-04-05T17:16:24.763Z,57.56
2024-04-05T17:18:52.864Z,58.87
2024-04-05T17:21:21.565Z,58.90
2024-04-05T17:23:50.342Z,57.60
2024-04-05T17:26:20.068Z,56.82
2024-04-05T17:28:49.757Z,59.18
2024-04-05T17:31:19.901Z,60.28
2024-04-05T17:33:48.138Z,60.88
2024-04-05T17:36:16.310Z,61.45
2024-04-05T17:38:50.586Z,61.87
2024-04-05T17:41:18.610Z,61.50
2024-04-05T17:43:47.328Z,62.01
2024-04-05T17:46:16.470Z,62.55
2024-04-05T17:48:44.622Z,60.80
2024-04-05T17:51:12.600Z,59.40
2024-04-05T17:53:40.941Z,58.70
2024-04-05T17:56:10.745Z,58.58
2024-04-05T17:58:38.718Z,58.92
2024-04-05T18:01:06.715Z,60.36
2024-04-05T18:03:34.944Z,59.25
2024-04-05T18:06:03.020Z,59.36
2024-04-05T18:08:31.039Z,58.92
2024-04-05T18:10:59.153Z,63.02
2024-04-05T18:13:27.126Z,61.53
2024-04-05T18:15:56.120Z,60.72
2024-04-05T18:18:24.077Z,61.06
2024-04-05T18:20:52.052Z,61.25
2024-04-05T18:23:20.063Z,61.78
2024-04-05T18:25:48.132Z,62.61
2024-04-05T18:28:16.823Z,62.03
2024-04-05T18:30:44.861Z,61.94
2024-04-05T18:33:12.888Z,61.83
2024-04-05T18:35:40.855Z,61.65
2024-04-05T18:38:09.036Z,62.21
2024-04-05T18:40:37.480Z,62.31
2024-04-05T18:43:05.652Z,62.42
2024-04-05T18:45:33.662Z,63.76
2024-04-05T18:48:10.602Z,62.30
2024-04-05T18:50:38.607Z,63.22
2024-04-05T18:53:06.669Z,63.16
2024-04-05T18:55:37.640Z,62.70
2024-04-05T18:58:06.042Z,63.29
2024-04-05T19:00:34.078Z,63.70
2024-04-05T19:03:05.203Z,66.13
2024-04-05T19:05:33.396Z,66.69
2024-04-05T19:08:01.454Z,66.60
2024-04-05T19:10:29.566Z,65.53
2024-04-05T19:12:57.610Z,64.86
2024-04-05T19:15:26.176Z,64.47
2024-04-05T19:17:54.154Z,64.13
2024-04-05T19:20:22.806Z,64.95
2024-04-05T19:22:50.768Z,64.87
2024-04-05T19:25:18.773Z,65.54
2024-04-05T19:27:46.805Z,66.42
2024-04-05T19:30:14.938Z,66.51
2024-04-05T19:32:43.335Z,66.32
2024-04-05T19:35:14.430Z,65.64
2024-04-05T19:37:44.954Z,65.40
2024-04-05T19:40:14.791Z,65.78
2024-04-05T19:42:42.999Z,66.59
2024-04-05T19:45:15.913Z,66.06
2024-04-05T19:47:44.060Z,65.27
2024-04-05T19:50:12.123Z,65.60
2024-04-05T19:52:40.174Z,66.48
2024-04-05T19:55:09.510Z,67.36
2024-04-05T19:57:37.561Z,67.89
2024-04-05T20:00:06.170Z,68.72
2024-04-05T20:02:40.680Z,69.49
2024-04-05T20:05:09.229Z,68.24
2024-04-05T20:07:38.003Z,68.08
2024-04-05T20:10:07.461Z,67.76
2024-04-05T20:12:36.872Z,68.17
2024-04-05T20:15:05.296Z,67.88
2024-04-05T20:17:35.415Z,68.31
2024-04-05T20:20:04.412Z,68.60
2024-04-05T20:22:32.614Z,67.60
2024-04-05T20:25:00.608Z,68.49
2024-04-05T20:27:28.761Z,69.35
2024-04-05T20:30:15.483Z,69.38
2024-04-05T20:32:43.986Z,69.07
2024-04-05T20:35:11.981Z,68.71
2024-04-05T20:37:40.209Z,69.94
2024-04-05T20:40:08.908Z,70.32
2024-04-05T20:42:36.832Z,69.61
2024-04-05T20:45:05.180Z,69.95
2024-04-05T20:47:33.909Z,70.74
2024-04-05T20:50:02.037Z,70.62
2024-04-05T20:52:30.527Z,70.43
2024-04-05T20:54:58.535Z,69.95
2024-04-05T20:57:26.652Z,69.79
2024-04-05T20:59:54.684Z,70.07
2024-04-05T21:02:22.721Z,69.97
2024-04-05T21:04:50.713Z,69.61
2024-04-05T21:07:18.694Z,69.62
2024-04-05T21:09:46.782Z,69.21
2024-04-05T21:12:15.281Z,69.31
2024-04-05T21:14:43.169Z,69.27
2024-04-05T21:17:11.319Z,68.80
2024-04-05T21:19:47.603Z,69.18
2024-04-05T21:22:15.974Z,70.38
2024-04-05T21:24:45.028Z,71.10
2024-04-05T21:27:13.069Z,71.29
2024-04-05T21:29:41.182Z,70.49
2024-04-05T21:32:12.932Z,70.51
2024-04-05T21:34:40.936Z,70.20
2024-04-05T21:37:08.903Z,70.76
2024-04-05T21:39:37.032Z,69.75
2024-04-05T21:42:05.552Z,69.90
2024-04-05T21:44:33.510Z,70.09
2024-04-05T21:47:01.518Z,69.71
2024-04-05T21:52:00.464Z,69.37
2024-04-05T21:54:28.425Z,69.29
2024-04-05T21:56:56.744Z,69.38
2024-04-05T21:59:25.407Z,69.87
2024-04-05T22:01:53.977Z,70.78
2024-04-05T22:04:22.010Z,70.84
2024-04-05T22:06:49.954Z,70.81
2024-04-05T22:09:18.338Z,70.87
2024-04-05T22:11:46.523Z,69.91
2024-04-05T22:14:20.508Z,69.90
2024-04-05T22:16:52.383Z,70.17
2024-04-05T22:19:20.367Z,70.56
2024-04-05T22:21:48.356Z,70.92
2024-04-05T22:24:16.318Z,71.41
2024-04-05T22:26:44.523Z,71.72
2024-04-05T22:29:12.459Z,71.73
2024-04-05T22:31:40.772Z,71.69
2024-04-05T22:34:08.878Z,71.32
2024-04-05T22:36:36.865Z,71.29
2024-04-05T22:39:08.932Z,71.41
2024-04-05T22:41:38.576Z,71.58
2024-04-05T22:44:06.545Z,72.14
2024-04-05T22:46:34.515Z,72.08
2024-04-05T22:49:02.581Z,73.54
2024-04-05T22:51:30.736Z,73.56
2024-04-05T22:53:58.709Z,73.59
2024-04-05T22:56:26.764Z,72.80
2024-04-05T22:58:54.765Z,72.38
2024-04-05T23:01:22.803Z,72.05
2024-04-05T23:03:50.774Z,71.89
2024-04-05T23:06:23.800Z,71.69
2024-04-05T23:08:51.969Z,72.11
2024-04-05T23:11:20.021Z,72.42
2024-04-05T23:13:48.214Z,73.04
2024-04-05T23:16:17.185Z,73.30
2024-04-05T23:18:45.201Z,73.04
2024-04-05T23:21:13.211Z,73.06
2024-04-05T23:23:41.233Z,72.60
2024-04-05T23:26:09.526Z,73.40
2024-04-05T23:28:38.089Z,73.55
2024-04-05T23:31:06.556Z,73.51
2024-04-05T23:33:34.696Z,73.60
2024-04-05T23:36:03.060Z,74.43
2024-04-05T23:38:31.118Z,74.52
2024-04-05T23:40:59.083Z,74.39
2024-04-05T23:43:27.123Z,73.80
2024-04-05T23:45:55.095Z,73.39
2024-04-05T23:48:23.426Z,73.43
2024-04-05T23:50:51.497Z,72.96
2024-04-05T23:53:19.744Z,72.58
2024-04-05T23:55:47.856Z,72.69
2024-04-05T23:58:15.848Z,72.62
